Big Bear Station Historical Data
Daily Summary for June 15, 2017 Units:  English    Metric   Both
« Previous Day
Next Day »
Daily Weekly Monthly Yearly Custom
  High: Low: Average:
Temperature: 84.7 °F 42.4 °F 62.9 °F
Dew Point: 42.6 °F 18.7 °F 34 °F
Humidity: 79 % 16 % 40 %
Wind Speed: 5.3 mph 0.0 mph 1.7 mph
Wind Gust: -999.0 mph - -
Wind:- - NW
Pressure: 30.24 in 30.18 in -
Precipitation: 0.00 in    
Historical Graphs
 
 
Tabular Data for June 15, 2017
Time Temperature Dew Point Pressure Wind Wind Speed Wind Gust Humidity Rainfall Rate (Hourly)
00:03 49.8 °F 35.6 °F 30.21 in Calm   -999.0 mph 58 % 0 in
00:18 49.3 °F 34.3 °F 30.21 in Calm   -999.0 mph 56 % 0 in
00:33 48.9 °F 34.3 °F 30.20 in Calm   -999.0 mph 57 % 0 in
00:48 48.4 °F 33.0 °F 30.20 in Calm   -999.0 mph 55 % 0 in
01:04 48.0 °F 33.5 °F 30.20 in Calm   -999.0 mph 57 % 0 in
01:19 47.7 °F 32.8 °F 30.20 in Calm   -999.0 mph 56 % 0 in
01:34 47.1 °F 34.7 °F 30.20 in Calm   -999.0 mph 62 % 0 in
01:49 46.6 °F 33.5 °F 30.20 in Calm   -999.0 mph 60 % 0 in
02:04 46.4 °F 34.1 °F 30.20 in Calm   -999.0 mph 62 % 0 in
02:20 46.0 °F 31.6 °F 30.20 in Calm   -999.0 mph 57 % 0 in
02:35 45.7 °F 33.0 °F 30.20 in South 1.7 mph -999.0 mph 61 % 0 in
02:50 45.7 °F 34.6 °F 30.19 in Calm   -999.0 mph 65 % 0 in
03:05 45.1 °F 34.4 °F 30.19 in Calm   -999.0 mph 66 % 0 in
03:21 45.0 °F 35.8 °F 30.19 in Calm   -999.0 mph 70 % 0 in
03:37 44.6 °F 35.8 °F 30.19 in Calm   -999.0 mph 71 % 0 in
03:52 44.2 °F 33.2 °F 30.18 in Calm   -999.0 mph 65 % 0 in
04:07 44.2 °F 34.7 °F 30.19 in Calm   -999.0 mph 69 % 0 in
04:22 43.9 °F 34.7 °F 30.19 in Calm   -999.0 mph 70 % 0 in
04:37 43.7 °F 34.9 °F 30.19 in Calm   -999.0 mph 71 % 0 in
04:53 43.3 °F 32.7 °F 30.19 in Calm   -999.0 mph 66 % 0 in
05:08 43.0 °F 32.4 °F 30.19 in Calm   -999.0 mph 66 % 0 in
05:23 43.0 °F 35.3 °F 30.19 in Calm   -999.0 mph 74 % 0 in
05:38 42.6 °F 34.2 °F 30.20 in Calm   -999.0 mph 72 % 0 in
05:53 42.4 °F 34.0 °F 30.20 in Calm   -999.0 mph 72 % 0 in
06:24 42.8 °F 35.4 °F 30.20 in Calm   -999.0 mph 75 % 0 in
06:39 43.2 °F 36.1 °F 30.20 in Calm   -999.0 mph 76 % 0 in
06:54 43.7 °F 37.0 °F 30.20 in Calm   -999.0 mph 77 % 0 in
07:09 44.4 °F 37.6 °F 30.20 in Calm   -999.0 mph 77 % 0 in
07:25 45.3 °F 38.5 °F 30.20 in Calm   -999.0 mph 77 % 0 in
07:40 46.9 °F 40.7 °F 30.21 in Calm   -999.0 mph 79 % 0 in
07:55 47.8 °F 40.9 °F 30.21 in Calm   -999.0 mph 77 % 0 in
08:10 50.7 °F 41.3 °F 30.21 in Calm   -999.0 mph 70 % 0 in
08:26 52.9 °F 42.2 °F 30.21 in Calm   -999.0 mph 67 % 0 in
08:41 54.5 °F 42.6 °F 30.21 in Calm   -999.0 mph 64 % 0 in
08:56 57.2 °F 41.6 °F 30.22 in Calm   -999.0 mph 56 % 0 in
09:11 61.2 °F 36.0 °F 30.22 in NW 3.2 mph -999.0 mph 39 % 0 in
09:26 65.8 °F 32.7 °F 30.22 in NW 3.2 mph -999.0 mph 29 % 0 in
09:42 70.0 °F 34.5 °F 30.22 in NW 3.7 mph -999.0 mph 27 % 0 in
09:57 70.7 °F 33.1 °F 30.22 in North 3.2 mph -999.0 mph 25 % 0 in
10:12 71.8 °F 30.9 °F 30.22 in NW 3.7 mph -999.0 mph 22 % 0 in
10:27 72.5 °F 31.5 °F 30.22 in NNW 3.7 mph -999.0 mph 22 % 0 in
10:43 73.4 °F 32.2 °F 30.22 in WNW 3.7 mph -999.0 mph 22 % 0 in
10:58 73.9 °F 31.5 °F 30.23 in NW 4.2 mph -999.0 mph 21 % 0 in
11:13 74.8 °F 32.2 °F 30.23 in NNW 3.7 mph -999.0 mph 21 % 0 in
11:28 76.5 °F 32.4 °F 30.23 in NNW 4.2 mph -999.0 mph 20 % 0 in
11:44 78.3 °F 35.2 °F 30.23 in NW 3.7 mph -999.0 mph 21 % 0 in
11:59 79.7 °F 31.0 °F 30.23 in SW 2.2 mph -999.0 mph 17 % 0 in
12:14 81.5 °F 35.3 °F 30.23 in NW 4.7 mph -999.0 mph 19 % 0 in
12:29 82.2 °F 33.1 °F 30.23 in North 4.2 mph -999.0 mph 17 % 0 in
12:45 82.9 °F 36.4 °F 30.23 in NNW 4.2 mph -999.0 mph 19 % 0 in
13:00 83.5 °F 32.6 °F 30.23 in NNW 4.2 mph -999.0 mph 16 % 0 in
13:15 83.7 °F 34.3 °F 30.23 in ENE 4.2 mph -999.0 mph 17 % 0 in
13:30 83.3 °F 32.4 °F 30.23 in WNW 3.7 mph -999.0 mph 16 % 0 in
13:46 84.7 °F 35.1 °F 30.23 in NW 4.2 mph -999.0 mph 17 % 0 in
14:01 82.4 °F 33.2 °F 30.23 in NW 3.7 mph -999.0 mph 17 % 0 in
14:16 84.0 °F 35.9 °F 30.23 in North 3.2 mph -999.0 mph 18 % 0 in
14:31 83.7 °F 37.1 °F 30.23 in NW 4.7 mph -999.0 mph 19 % 0 in
14:46 81.9 °F 35.6 °F 30.23 in North 4.7 mph -999.0 mph 19 % 0 in
15:02 82.4 °F 37.3 °F 30.23 in NW 3.7 mph -999.0 mph 20 % 0 in
15:17 83.7 °F 37.1 °F 30.23 in WNW 3.7 mph -999.0 mph 19 % 0 in
15:33 82.6 °F 37.5 °F 30.23 in NW 4.2 mph -999.0 mph 20 % 0 in
15:48 82.2 °F 39.6 °F 30.23 in WNW 4.2 mph -999.0 mph 22 % 0 in
16:05 82.2 °F 39.6 °F 30.23 in WNW 4.2 mph -999.0 mph 22 % 0 in
16:20 81.3 °F 38.8 °F 30.22 in North 4.7 mph -999.0 mph 22 % 0 in
16:35 81.7 °F 38.0 °F 30.22 in North 3.2 mph -999.0 mph 21 % 0 in
16:50 82.9 °F 37.7 °F 30.22 in WNW 4.7 mph -999.0 mph 20 % 0 in
17:05 83.8 °F 38.5 °F 30.22 in NNW 5.3 mph -999.0 mph 20 % 0 in
17:21 82.6 °F 37.5 °F 30.22 in WNW 4.2 mph -999.0 mph 20 % 0 in
17:36 82.6 °F 34.8 °F 30.21 in NW 3.7 mph -999.0 mph 18 % 0 in
17:51 81.5 °F 32.5 °F 30.21 in WNW 4.7 mph -999.0 mph 17 % 0 in
18:07 80.6 °F 31.8 °F 30.21 in North 3.2 mph -999.0 mph 17 % 0 in
18:22 80.1 °F 35.4 °F 30.21 in NW 2.2 mph -999.0 mph 20 % 0 in
18:37 80.2 °F 35.5 °F 30.22 in NW 3.7 mph -999.0 mph 20 % 0 in
18:52 79.0 °F 38.0 °F 30.22 in WNW 3.7 mph -999.0 mph 23 % 0 in
19:08 77.9 °F 37.1 °F 30.22 in NW 4.2 mph -999.0 mph 23 % 0 in
19:23 73.9 °F 36.9 °F 30.22 in Calm   -999.0 mph 26 % 0 in
19:38 70.7 °F 36.0 °F 30.22 in Calm   -999.0 mph 28 % 0 in
19:53 68.7 °F 35.2 °F 30.22 in Calm   -999.0 mph 29 % 0 in
20:09 65.7 °F 35.0 °F 30.23 in Calm   -999.0 mph 32 % 0 in
20:24 63.1 °F 35.7 °F 30.23 in South 1.7 mph -999.0 mph 36 % 0 in
20:39 61.9 °F 26.6 °F 30.23 in SSW 2.2 mph -999.0 mph 26 % 0 in
20:54 61.2 °F 26.0 °F 30.23 in Calm   -999.0 mph 26 % 0 in
21:09 59.5 °F 24.6 °F 30.23 in Calm   -999.0 mph 26 % 0 in
21:25 58.1 °F 22.4 °F 30.23 in Calm   -999.0 mph 25 % 0 in
21:40 57.2 °F 18.7 °F 30.24 in Calm   -999.0 mph 22 % 0 in
21:55 56.5 °F 23.8 °F 30.24 in Calm   -999.0 mph 28 % 0 in
22:10 55.6 °F 26.9 °F 30.24 in Calm   -999.0 mph 33 % 0 in
22:25 54.9 °F 24.8 °F 30.24 in Calm   -999.0 mph 31 % 0 in
22:41 54.1 °F 25.6 °F 30.24 in Calm   -999.0 mph 33 % 0 in
22:56 53.6 °F 28.6 °F 30.24 in Calm   -999.0 mph 38 % 0 in
23:11 52.9 °F 31.6 °F 30.24 in Calm   -999.0 mph 44 % 0 in
23:26 52.3 °F 26.1 °F 30.24 in Calm   -999.0 mph 36 % 0 in
23:41 51.6 °F 28.1 °F 30.24 in Calm   -999.0 mph 40 % 0 in
23:57 51.4 °F 29.6 °F 30.24 in Calm   -999.0 mph 43 % 0 in
Big Bear CA Weather
Compliments of Weather Underground - 1.5 mb